Time;durP1;ratioP1;P1;durP2;ratioP2;P2;SDS_P1;SDS_P2;PMS_P1;PMS_P2;Temp;Humidity;BMP_temperature;BMP_pressure;BME280_temperature;BME280_humidity;BME280_pressure;Samples;Min_cycle;Max_cycle;Signal;HPM_P1;HPM_P2
2023/05/10 00:01:52;;;;;;;1.42;1.20;;;;;;;18.69;66.31;100798.22;6123724;23;20006;-47
2023/05/10 00:04:17;;;;;;;1.33;1.23;;;;;;;18.68;65.66;100804.66;6124139;23;20440;-50
2023/05/10 00:06:43;;;;;;;1.45;1.35;;;;;;;18.69;66.50;100800.09;6123882;23;20013;-49
2023/05/10 00:09:08;;;;;;;1.23;1.20;;;;;;;18.70;66.17;100799.94;6124442;23;20010;-49
2023/05/10 00:11:33;;;;;;;1.30;1.20;;;;;;;18.68;66.30;100796.56;6123519;23;20041;-51
2023/05/10 00:13:59;;;;;;;1.80;1.50;;;;;;;18.69;66.18;100798.22;6123868;23;20006;-48
2023/05/10 00:16:24;;;;;;;1.08;0.93;;;;;;;18.68;66.51;100801.09;6123381;23;20393;-51
2023/05/10 00:18:49;;;;;;;1.00;1.00;;;;;;;18.69;66.26;100800.09;6123914;23;20009;-47
2023/05/10 00:21:15;;;;;;;1.10;0.90;;;;;;;18.69;66.31;100800.94;6123849;23;20038;-48
2023/05/10 00:23:40;;;;;;;1.30;1.20;;;;;;;18.68;66.44;100804.66;6123939;23;20010;-49
2023/05/10 00:26:06;;;;;;;1.58;1.48;;;;;;;18.68;66.51;100791.16;6124230;23;20029;-50
2023/05/10 00:28:31;;;;;;;1.40;1.20;;;;;;;18.68;66.53;100801.94;6097965;23;20484;-47
2023/05/10 00:30:56;;;;;;;1.70;1.60;;;;;;;18.68;65.92;100795.72;6123344;23;20006;-49
2023/05/10 00:33:22;;;;;;;2.00;1.50;;;;;;;18.68;65.92;100799.25;6123639;23;20429;-47
2023/05/10 00:35:47;;;;;;;2.13;1.45;;;;;;;18.67;66.24;100794.84;6123355;23;20016;-48
2023/05/10 00:38:12;;;;;;;1.90;1.48;;;;;;;18.67;66.13;100797.53;6097956;23;20033;-48
2023/05/10 00:40:38;;;;;;;2.95;1.52;;;;;;;18.67;66.14;100802.09;6124132;23;20432;-49
2023/05/10 00:43:04;;;;;;;1.38;1.17;;;;;;;18.67;66.15;100800.22;6123390;23;20364;-48
2023/05/10 00:45:31;;;;;;;1.60;1.50;;;;;;;18.68;65.98;100806.50;6123213;23;20097;-47
2023/05/10 00:47:57;;;;;;;1.55;1.45;;;;;;;18.67;65.94;100802.94;6123625;23;20009;-50
2023/05/10 00:50:23;;;;;;;1.55;1.45;;;;;;;18.67;66.39;100799.41;6123438;23;20032;-48
2023/05/10 00:52:49;;;;;;;1.83;1.73;;;;;;;18.66;66.11;100803.94;6123426;23;20085;-48
2023/05/10 00:55:15;;;;;;;1.50;1.40;;;;;;;18.66;66.31;100793.16;6123374;23;20009;-47
2023/05/10 00:57:41;;;;;;;1.40;1.30;;;;;;;18.66;65.75;100795.88;6123629;23;20409;-46
2023/05/10 01:00:07;;;;;;;1.63;1.52;;;;;;;18.65;66.07;100796.00;6123413;23;20028;-51
2023/05/10 01:02:34;;;;;;;2.22;1.70;;;;;;;18.65;66.13;100794.16;6123271;23;20113;-50
2023/05/10 01:05:00;;;;;;;2.25;1.67;;;;;;;18.65;66.13;100788.75;6122898;23;20006;-47
2023/05/10 01:07:25;;;;;;;1.67;1.58;;;;;;;18.65;66.02;100788.75;6123373;23;20037;-49
2023/05/10 01:09:50;;;;;;;1.50;1.40;;;;;;;18.65;66.35;100796.84;6123237;23;20013;-47
2023/05/10 01:12:16;;;;;;;1.98;1.60;;;;;;;18.64;66.09;100789.78;6123378;23;20072;-48
2023/05/10 01:14:42;;;;;;;1.58;1.48;;;;;;;18.65;66.20;100788.75;6123739;23;20009;-47
2023/05/10 01:17:09;;;;;;;1.67;1.50;;;;;;;18.64;65.95;100787.06;6123278;23;20044;-49
2023/05/10 01:19:36;;;;;;;1.60;1.50;;;;;;;18.65;65.94;100790.63;6123356;23;20010;-48
2023/05/10 01:22:25;;;;;;;1.73;1.50;;;;;;;18.64;66.29;100786.19;6123408;23;20424;-46
2023/05/10 01:25:21;;;;;;;1.85;1.60;;;;;;;18.68;65.87;100790.31;6123305;23;20069;-50
2023/05/10 01:28:08;;;;;;;2.42;1.65;;;;;;;18.65;65.95;100791.44;6123073;23;20324;-49
2023/05/10 01:30:56;;;;;;;1.60;1.40;;;;;;;18.65;66.25;100783.34;6122809;23;20002;-47
2023/05/10 01:33:51;;;;;;;1.60;1.50;;;;;;;18.63;66.22;100782.66;6123154;23;20008;-47
2023/05/10 01:36:25;;;;;;;1.83;1.50;;;;;;;18.62;65.98;100786.38;6123110;23;20093;-49
2023/05/10 01:38:57;;;;;;;1.63;1.45;;;;;;;18.62;65.77;100781.00;6123290;23;20088;-49
2023/05/10 01:41:44;;;;;;;2.00;1.80;;;;;;;18.64;65.91;100787.06;6122949;23;20010;-48
2023/05/10 01:44:39;;;;;;;2.42;1.92;;;;;;;18.64;66.30;100795.16;6123725;23;20002;-49
2023/05/10 01:47:07;;;;;;;2.08;1.55;;;;;;;18.61;65.97;100800.84;6123093;23;20484;-51
2023/05/10 01:49:39;;;;;;;2.13;1.77;;;;;;;18.61;66.13;100795.47;6122953;23;20009;-47
2023/05/10 01:52:19;;;;;;;1.70;1.58;;;;;;;18.61;65.87;100791.91;6123358;23;20354;-51
2023/05/10 01:55:02;;;;;;;3.00;2.10;;;;;;;18.62;65.98;100799.88;6123373;23;20015;-51
2023/05/10 01:57:33;;;;;;;2.10;1.90;;;;;;;18.60;65.91;100799.16;6121199;23;20024;-46
2023/05/10 02:00:00;;;;;;;2.38;2.15;;;;;;;18.61;65.93;100800.00;6123086;23;20025;-47
2023/05/10 02:02:28;;;;;;;2.72;1.98;;;;;;;18.59;66.12;100796.63;6122909;23;20089;-49
2023/05/10 02:04:55;;;;;;;2.53;2.30;;;;;;;18.59;65.94;100792.06;6121293;23;20017;-51
2023/05/10 02:07:23;;;;;;;2.30;1.95;;;;;;;18.59;66.14;100800.16;6122864;23;20002;-48
2023/05/10 02:09:50;;;;;;;2.67;2.13;;;;;;;18.59;66.24;100796.63;6122989;23;20013;-49
2023/05/10 02:12:17;;;;;;;2.75;2.40;;;;;;;18.58;66.25;100801.16;6122702;23;20033;-51
2023/05/10 02:14:44;;;;;;;3.55;2.08;;;;;;;18.58;66.06;100797.59;6097758;23;20022;-46
2023/05/10 02:17:11;;;;;;;2.83;1.95;;;;;;;18.58;66.17;100800.31;6124766;23;20002;-46
2023/05/10 02:19:39;;;;;;;2.35;2.15;;;;;;;18.58;66.14;100811.94;6099424;23;20436;-51
2023/05/10 02:22:05;;;;;;;3.75;2.60;;;;;;;18.58;66.16;100806.53;6124637;23;20006;-47
2023/05/10 02:24:33;;;;;;;2.25;2.03;;;;;;;18.58;66.29;100820.03;6125213;23;20093;-50
2023/05/10 02:27:02;;;;;;;2.33;2.13;;;;;;;18.57;66.25;100815.63;6125320;23;20306;-50
2023/05/10 02:29:28;;;;;;;4.78;2.55;;;;;;;18.58;66.24;100817.31;6124405;23;20089;-48
2023/05/10 02:31:55;;;;;;;3.25;2.58;;;;;;;18.57;66.20;100812.94;6124694;23;20333;-46
2023/05/10 02:34:25;;;;;;;4.53;3.20;;;;;;;18.58;66.49;100813.78;6124681;23;20010;-50
2023/05/10 02:36:53;;;;;;;2.72;2.30;;;;;;;18.58;66.31;100803.84;6124737;23;20005;-50
2023/05/10 02:39:20;;;;;;;2.88;2.58;;;;;;;18.56;66.48;100814.81;6124834;23;20009;-49
2023/05/10 02:41:48;;;;;;;2.95;2.63;;;;;;;18.56;66.01;100813.94;6125342;23;20010;-48
2023/05/10 02:44:17;;;;;;;3.65;3.00;;;;;;;18.56;66.17;100806.72;6125251;23;20017;-48
2023/05/10 02:46:43;;;;;;;2.63;2.42;;;;;;;18.58;66.10;100816.47;6125116;23;20008;-50
2023/05/10 02:49:08;;;;;;;3.35;2.92;;;;;;;18.56;66.22;100809.41;6124420;23;20085;-47
2023/05/10 02:51:37;;;;;;;4.20;3.08;;;;;;;18.57;66.25;100810.25;6124906;23;20002;-48
2023/05/10 02:54:09;;;;;;;4.65;3.05;;;;;;;18.55;66.18;100806.84;6124613;23;20421;-49
2023/05/10 02:56:40;;;;;;;3.63;3.25;;;;;;;18.55;66.31;100809.56;6124173;23;20010;-50
2023/05/10 02:59:06;;;;;;;3.50;3.10;;;;;;;18.57;65.86;100815.63;6124397;23;20024;-48
2023/05/10 03:01:31;;;;;;;3.47;3.15;;;;;;;18.54;66.08;100822.19;6124304;23;20082;-47
2023/05/10 03:03:57;;;;;;;3.33;2.95;;;;;;;18.55;66.11;100817.66;6124375;23;20033;-50
2023/05/10 03:06:22;;;;;;;3.65;3.00;;;;;;;18.55;66.16;100820.34;6124480;23;20002;-48
2023/05/10 03:08:48;;;;;;;3.95;3.10;;;;;;;18.55;66.14;100817.66;6124428;23;20379;-48
2023/05/10 03:11:43;;;;;;;4.25;3.05;;;;;;;18.57;65.99;100821.03;6125041;23;20010;-49
2023/05/10 03:14:38;;;;;;;4.53;3.83;;;;;;;18.58;66.00;100817.31;6124462;23;20001;-48
2023/05/10 03:17:10;;;;;;;4.93;3.60;;;;;;;18.55;66.37;100814.94;6113307;23;20089;-47
2023/05/10 03:19:47;;;;;;;3.67;3.22;;;;;;;18.54;66.29;100815.94;6124469;23;20037;-48
2023/05/10 03:22:19;;;;;;;6.35;4.40;;;;;;;18.54;66.33;100818.63;6124654;23;20006;-51
2023/05/10 03:24:46;;;;;;;4.22;3.13;;;;;;;18.54;66.15;100826.72;6124974;23;20009;-50
2023/05/10 03:27:14;;;;;;;4.20;3.67;;;;;;;18.54;66.11;100829.41;6124027;23;20036;-49
2023/05/10 03:29:40;;;;;;;4.28;3.58;;;;;;;18.53;66.21;100823.19;6124057;23;20088;-51
2023/05/10 03:32:05;;;;;;;3.95;3.55;;;;;;;18.54;66.32;100821.31;6124419;23;20033;-48
2023/05/10 03:34:31;;;;;;;5.28;3.70;;;;;;;18.55;66.22;100825.72;6124285;23;20429;-48
2023/05/10 03:36:56;;;;;;;5.13;4.00;;;;;;;18.54;66.36;100832.09;6124133;23;20014;-47
2023/05/10 03:39:22;;;;;;;4.57;3.40;;;;;;;18.54;66.43;100838.38;6124303;23;20032;-49
2023/05/10 03:41:47;;;;;;;5.47;3.65;;;;;;;18.52;66.31;100824.19;6124635;23;20108;-51
2023/05/10 03:44:12;;;;;;;3.97;3.58;;;;;;;18.53;66.32;100838.53;6123960;23;20020;-48
2023/05/10 03:46:38;;;;;;;4.07;3.65;;;;;;;18.53;66.25;100841.22;6123728;23;20089;-48
2023/05/10 03:49:03;;;;;;;4.38;3.75;;;;;;;18.53;66.35;100846.59;6123967;23;20005;-49
2023/05/10 03:51:30;;;;;;;4.55;4.07;;;;;;;18.53;65.77;100846.59;6123962;23;20040;-47
2023/05/10 03:53:56;;;;;;;5.28;4.22;;;;;;;18.53;66.10;100843.91;6124197;23;20145;-48
2023/05/10 03:56:21;;;;;;;5.78;4.35;;;;;;;18.53;66.07;100846.59;6123488;23;20064;-50
2023/05/10 03:58:47;;;;;;;4.63;3.58;;;;;;;18.53;66.33;100852.00;6124758;23;20377;-47
2023/05/10 04:01:12;;;;;;;4.35;3.95;;;;;;;18.52;66.14;100837.69;6123679;23;20487;-49
2023/05/10 04:03:38;;;;;;;6.45;4.88;;;;;;;18.52;66.11;100845.78;6123814;23;20441;-49
2023/05/10 04:06:04;;;;;;;6.05;4.70;;;;;;;18.51;66.17;100848.59;6123792;23;20009;-48
2023/05/10 04:08:30;;;;;;;4.78;4.07;;;;;;;18.51;66.28;100851.31;6124138;23;20325;-49
2023/05/10 04:11:05;;;;;;;5.53;4.43;;;;;;;18.52;65.84;100855.69;6123963;23;20010;-47
2023/05/10 04:13:31;;;;;;;5.82;4.45;;;;;;;18.51;65.95;100852.13;6123702;23;20010;-49
2023/05/10 04:15:56;;;;;;;4.70;4.15;;;;;;;18.51;66.61;100859.38;6123335;23;20155;-49
2023/05/10 04:18:21;;;;;;;5.57;4.65;;;;;;;18.51;66.12;100854.00;6123577;23;20057;-49
2023/05/10 04:20:47;;;;;;;4.68;4.13;;;;;;;18.50;66.05;100853.13;6124476;23;20068;-48
2023/05/10 04:23:13;;;;;;;6.68;5.05;;;;;;;18.50;66.21;100858.53;6123748;23;20006;-50
2023/05/10 04:25:39;;;;;;;4.78;4.32;;;;;;;18.50;66.06;100853.13;6124160;23;20013;-48
2023/05/10 04:28:04;;;;;;;6.50;4.97;;;;;;;18.50;65.89;100857.69;6123875;23;20017;-47
2023/05/10 04:30:30;;;;;;;6.65;4.95;;;;;;;18.50;66.04;100855.81;6123656;23;20014;-48
2023/05/10 04:32:55;;;;;;;5.80;4.20;;;;;;;18.49;66.20;100854.13;6123664;23;20025;-49
2023/05/10 04:35:21;;;;;;;4.95;4.20;;;;;;;18.49;66.09;100862.22;6124163;23;20065;-47
2023/05/10 04:37:46;;;;;;;4.95;4.32;;;;;;;18.50;66.03;100860.38;6123850;23;20319;-48
2023/05/10 04:40:12;;;;;;;5.63;4.50;;;;;;;18.50;65.90;100863.06;6123492;23;20068;-49
2023/05/10 04:42:40;;;;;;;4.75;4.30;;;;;;;18.48;65.96;100865.06;6123762;23;20010;-48
2023/05/10 04:45:06;;;;;;;4.82;4.32;;;;;;;18.48;65.88;100865.91;6123321;23;20017;-47
2023/05/10 04:47:32;;;;;;;5.80;4.65;;;;;;;18.49;66.02;100864.09;6123803;23;20009;-48
2023/05/10 04:49:58;;;;;;;6.53;4.70;;;;;;;18.48;66.06;100868.59;6123632;23;20480;-47
2023/05/10 04:52:23;;;;;;;4.38;3.70;;;;;;;18.48;66.11;100870.47;6122804;23;20456;-48
2023/05/10 04:54:49;;;;;;;4.05;3.65;;;;;;;18.48;66.11;100870.47;6123970;23;20040;-48
2023/05/10 04:57:14;;;;;;;4.45;4.05;;;;;;;18.48;65.77;100870.47;6122845;23;20022;-49
2023/05/10 04:59:40;;;;;;;4.53;4.10;;;;;;;18.48;66.04;100875.84;6097291;23;20013;-51
2023/05/10 05:02:05;;;;;;;6.00;4.45;;;;;;;18.48;66.30;100881.25;6123467;23;20061;-49
2023/05/10 05:04:31;;;;;;;5.03;3.92;;;;;;;18.49;66.50;100882.97;6123024;23;20006;-51
2023/05/10 05:06:56;;;;;;;5.88;4.80;;;;;;;18.49;66.45;100883.81;6123486;23;20010;-49
2023/05/10 05:09:22;;;;;;;9.43;4.55;;;;;;;18.50;67.23;100885.47;6124360;23;20413;-48
2023/05/10 05:11:47;;;;;;;5.90;4.72;;;;;;;18.49;67.20;100883.81;6122841;23;20301;-50
2023/05/10 05:14:12;;;;;;;6.70;4.82;;;;;;;18.51;66.89;100880.97;6122524;23;20370;-50
2023/05/10 05:16:38;;;;;;;8.60;5.05;;;;;;;18.50;67.26;100881.94;6122129;23;20010;-50
2023/05/10 05:19:03;;;;;;;8.43;4.60;;;;;;;18.49;66.98;100881.09;6123100;23;20013;-50
2023/05/10 05:21:29;;;;;;;7.00;4.95;;;;;;;18.51;66.99;100891.75;6122737;23;20338;-49
2023/05/10 05:23:54;;;;;;;5.32;4.43;;;;;;;18.49;67.21;100893.75;6122649;23;20315;-49
2023/05/10 05:26:20;;;;;;;6.82;4.80;;;;;;;18.49;67.15;100888.34;6123233;23;20082;-50
2023/05/10 05:28:45;;;;;;;7.38;4.88;;;;;;;18.50;67.17;100896.25;6122862;23;20005;-49
2023/05/10 05:31:10;;;;;;;8.75;5.25;;;;;;;18.50;66.87;100895.44;6122882;23;20010;-51
2023/05/10 05:33:36;;;;;;;10.20;5.28;;;;;;;18.50;66.92;100898.13;6123788;23;20014;-52
2023/05/10 05:36:03;;;;;;;11.75;5.70;;;;;;;18.48;66.96;100900.97;6122671;23;20009;-48
2023/05/10 05:38:28;;;;;;;10.85;5.43;;;;;;;18.50;66.89;100895.44;6123954;23;20504;-48
2023/05/10 05:40:54;;;;;;;12.27;5.85;;;;;;;18.50;66.92;100900.81;6123325;23;20044;-49
2023/05/10 05:43:19;;;;;;;14.18;5.60;;;;;;;18.49;66.86;100904.53;6123209;23;20542;-49
2023/05/10 05:45:45;;;;;;;8.18;5.13;;;;;;;18.49;66.83;100904.53;6121938;23;20337;-47
2023/05/10 05:48:10;;;;;;;9.40;5.53;;;;;;;18.49;67.41;100904.53;6122173;23;20009;-50
2023/05/10 05:50:36;;;;;;;10.05;5.15;;;;;;;18.48;66.88;100909.06;6121917;23;20080;-51
2023/05/10 05:53:02;;;;;;;13.02;5.55;;;;;;;18.48;66.93;100909.06;6121824;23;20017;-51
2023/05/10 05:55:27;;;;;;;12.20;5.65;;;;;;;18.49;66.72;100904.53;6121779;23;20302;-48
2023/05/10 05:57:53;;;;;;;8.57;5.40;;;;;;;18.49;67.05;100912.63;6122249;23;20026;-47
2023/05/10 06:00:18;;;;;;;8.65;5.32;;;;;;;18.48;66.62;100906.34;6123459;23;20029;-48
2023/05/10 06:02:44;;;;;;;7.80;5.25;;;;;;;18.48;66.86;100908.22;6123546;23;20440;-50
2023/05/10 06:05:09;;;;;;;7.75;4.85;;;;;;;18.49;66.68;100909.91;6122307;23;20014;-50
2023/05/10 06:07:35;;;;;;;8.85;5.03;;;;;;;18.48;66.67;100906.34;6122529;23;20005;-51
2023/05/10 06:10:00;;;;;;;9.70;4.97;;;;;;;18.48;66.56;100914.44;6122245;23;20006;-50
2023/05/10 06:12:26;;;;;;;7.20;4.90;;;;;;;18.48;66.61;100910.91;6122374;23;20022;-48
2023/05/10 06:14:51;;;;;;;7.75;5.30;;;;;;;18.48;66.54;100916.28;6122699;23;20010;-49
2023/05/10 06:17:16;;;;;;;6.20;5.03;;;;;;;18.48;66.79;100927.09;6122319;23;20009;-52
2023/05/10 06:19:42;;;;;;;8.55;5.35;;;;;;;18.49;66.76;100931.50;6123114;23;20413;-49
2023/05/10 06:22:07;;;;;;;7.05;4.80;;;;;;;18.48;66.96;100924.38;6123520;23;20336;-50
2023/05/10 06:24:32;;;;;;;9.85;5.53;;;;;;;18.48;66.61;100929.78;6123824;23;20010;-51
2023/05/10 06:26:59;;;;;;;7.78;5.22;;;;;;;18.48;66.40;100922.53;6123640;23;20325;-50
2023/05/10 06:29:25;;;;;;;5.88;4.68;;;;;;;18.48;66.58;100935.16;6123723;23;20017;-48
2023/05/10 06:31:50;;;;;;;7.43;5.03;;;;;;;18.47;66.71;100933.50;6097802;23;20009;-50
2023/05/10 06:34:16;;;;;;;7.72;5.13;;;;;;;18.47;66.60;100928.09;6123763;23;20026;-48
2023/05/10 06:36:41;;;;;;;9.80;5.35;;;;;;;18.48;66.73;100935.16;6123410;23;20021;-50
2023/05/10 06:39:07;;;;;;;5.90;4.18;;;;;;;18.47;66.45;100931.63;6123483;23;20014;-49
2023/05/10 06:41:32;;;;;;;6.97;4.90;;;;;;;18.48;66.31;100943.25;6123750;23;20014;-47
2023/05/10 06:43:57;;;;;;;8.00;4.97;;;;;;;18.47;66.50;100941.56;6123410;23;20013;-47
2023/05/10 06:46:23;;;;;;;6.75;4.75;;;;;;;18.48;66.62;100945.97;6123753;23;20072;-50
2023/05/10 06:48:48;;;;;;;6.95;4.85;;;;;;;18.47;66.53;100953.19;6123375;23;20009;-50
2023/05/10 06:51:13;;;;;;;6.22;4.50;;;;;;;18.47;66.24;100955.06;6123384;23;20018;-52
2023/05/10 06:53:39;;;;;;;5.22;4.72;;;;;;;18.47;66.28;100947.81;6123389;23;20010;-49
2023/05/10 06:56:04;;;;;;;8.07;4.60;;;;;;;18.46;66.50;100964.97;6123422;23;20060;-47
2023/05/10 06:58:30;;;;;;;7.95;4.70;;;;;;;18.46;66.33;100951.50;6123165;23;20060;-46
2023/05/10 07:01:01;;;;;;;5.50;4.57;;;;;;;18.47;66.32;100957.75;6124023;23;20085;-48
2023/05/10 07:03:27;;;;;;;6.05;4.95;;;;;;;18.46;66.35;100958.72;6125466;23;20092;-47
2023/05/10 07:05:52;;;;;;;5.93;4.93;;;;;;;18.46;66.12;100961.44;6125236;23;20306;-46
2023/05/10 07:08:18;;;;;;;6.18;4.70;;;;;;;18.46;66.36;100964.13;6125118;23;20020;-47
2023/05/10 07:10:43;;;;;;;7.55;4.75;;;;;;;18.46;66.22;100969.53;6125113;23;20084;-49
2023/05/10 07:13:09;;;;;;;6.13;4.53;;;;;;;18.46;66.32;100969.53;6125067;23;20006;-48
2023/05/10 07:15:35;;;;;;;5.47;3.97;;;;;;;18.45;66.57;100978.59;6124867;23;20017;-47
2023/05/10 07:18:00;;;;;;;5.88;4.95;;;;;;;18.45;66.16;100971.38;6125309;23;20029;-46
2023/05/10 07:20:25;;;;;;;5.13;4.18;;;;;;;18.46;66.19;100983.84;6125568;23;20013;-47
2023/05/10 07:22:51;;;;;;;5.50;4.22;;;;;;;18.45;66.33;100986.69;6124720;23;20013;-46
2023/05/10 07:25:16;;;;;;;5.95;4.30;;;;;;;18.45;66.13;100983.97;6125163;23;20013;-49
2023/05/10 07:27:41;;;;;;;4.70;4.15;;;;;;;18.44;66.34;100990.38;6124952;23;20037;-46
2023/05/10 07:30:07;;;;;;;5.88;3.83;;;;;;;18.44;66.16;100993.94;6125035;23;20021;-47
2023/05/10 07:32:33;;;;;;;6.70;4.47;;;;;;;18.45;66.30;100994.75;6124979;23;20399;-48
2023/05/10 07:34:58;;;;;;;6.47;4.43;;;;;;;18.44;66.21;100987.69;6125371;23;20009;-46
2023/05/10 07:37:24;;;;;;;6.18;4.90;;;;;;;18.44;66.04;100991.22;6124809;23;20010;-48
2023/05/10 07:39:49;;;;;;;6.13;4.68;;;;;;;18.43;66.41;100991.38;6124992;23;20048;-47
2023/05/10 07:42:14;;;;;;;7.47;4.63;;;;;;;18.43;66.28;100984.16;6124667;23;20076;-47
2023/05/10 07:44:40;;;;;;;4.97;3.92;;;;;;;18.44;66.12;100996.63;6124664;23;20017;-48
2023/05/10 07:47:05;;;;;;;5.68;4.75;;;;;;;18.44;66.15;100993.09;6124634;23;20006;-46
2023/05/10 07:49:30;;;;;;;5.65;4.40;;;;;;;18.44;66.21;101001.16;6124644;23;20068;-47
2023/05/10 07:51:56;;;;;;;4.90;4.15;;;;;;;18.44;66.10;101001.16;6125230;23;20025;-48
2023/05/10 07:54:21;;;;;;;5.25;4.32;;;;;;;18.43;65.93;101000.34;6124940;23;20010;-47
2023/05/10 07:56:47;;;;;;;4.85;4.18;;;;;;;18.44;66.26;101003.88;6124419;23;20333;-47
2023/05/10 07:59:16;;;;;;;5.85;4.22;;;;;;;18.43;65.92;101012.94;6124653;23;20024;-48
2023/05/10 08:01:43;;;;;;;5.95;4.75;;;;;;;18.43;66.25;101012.94;6124520;23;20037;-47
2023/05/10 08:04:08;;;;;;;5.45;4.40;;;;;;;18.43;65.99;101021.91;6124500;23;20002;-47
2023/05/10 08:06:34;;;;;;;5.38;4.40;;;;;;;18.43;65.86;101024.59;6124744;23;20014;-50
2023/05/10 08:08:59;;;;;;;4.95;3.85;;;;;;;18.43;66.44;101024.59;6125089;23;20009;-48
2023/05/10 08:11:25;;;;;;;6.18;4.35;;;;;;;18.43;66.32;101027.28;6124346;23;20006;-50
2023/05/10 08:13:50;;;;;;;6.45;4.35;;;;;;;18.43;66.02;101026.41;6124259;23;20065;-46
2023/05/10 08:16:17;;;;;;;5.85;4.13;;;;;;;18.44;65.97;101030.84;6124179;23;20012;-47
2023/05/10 08:18:44;;;;;;;4.80;4.20;;;;;;;18.43;66.07;101034.50;6124509;23;20337;-47
2023/05/10 08:21:11;;;;;;;4.38;3.70;;;;;;;18.44;65.97;101036.22;6124668;23;20010;-46
2023/05/10 08:23:36;;;;;;;6.07;4.20;;;;;;;18.43;66.19;101045.28;6124366;23;20425;-47
2023/05/10 08:26:02;;;;;;;7.53;4.75;;;;;;;18.43;65.99;101040.78;6124317;23;20081;-48
2023/05/10 08:28:27;;;;;;;5.28;4.22;;;;;;;18.43;65.85;101037.19;6124733;23;20037;-49
2023/05/10 08:30:53;;;;;;;5.85;4.38;;;;;;;18.43;66.00;101045.28;6124052;23;20329;-47
2023/05/10 08:33:18;;;;;;;5.45;4.10;;;;;;;18.44;65.90;101058.63;6124120;23;20016;-48
2023/05/10 08:35:44;;;;;;;5.45;3.83;;;;;;;18.44;65.93;101049.69;6124189;23;20440;-49
2023/05/10 08:38:09;;;;;;;5.53;4.15;;;;;;;18.44;66.18;101047.00;6124469;23;20013;-50
2023/05/10 08:40:36;;;;;;;3.92;3.53;;;;;;;18.43;65.98;101051.56;6124261;23;20006;-48
2023/05/10 08:43:07;;;;;;;3.78;3.35;;;;;;;18.44;66.11;101052.41;6124583;23;20307;-47
2023/05/10 08:45:36;;;;;;;4.77;3.70;;;;;;;18.43;66.10;101046.16;6124440;23;20009;-50
2023/05/10 08:48:01;;;;;;;4.85;3.92;;;;;;;18.45;65.90;101048.69;6124819;23;20060;-50
2023/05/10 08:50:29;;;;;;;6.40;4.30;;;;;;;18.44;66.03;101055.94;6124152;23;20013;-48
2023/05/10 08:52:57;;;;;;;8.75;3.58;;;;;;;18.44;66.10;101057.78;6124287;23;20069;-50
2023/05/10 08:55:24;;;;;;;5.28;3.60;;;;;;;18.45;66.12;101062.16;6123994;23;20702;-48
2023/05/10 08:57:49;;;;;;;4.55;3.55;;;;;;;18.44;66.16;101058.63;6124054;23;20045;-48
2023/05/10 09:00:16;;;;;;;4.43;3.28;;;;;;;18.45;66.20;101064.88;6123970;23;20420;-48
2023/05/10 09:02:43;;;;;;;3.97;3.13;;;;;;;18.44;66.11;101065.88;6124302;23;20013;-49
2023/05/10 09:05:09;;;;;;;4.10;3.25;;;;;;;18.43;65.89;101066.84;6124004;23;20013;-47
2023/05/10 09:07:35;;;;;;;4.70;3.42;;;;;;;18.43;65.92;101067.72;6123979;23;20013;-47
2023/05/10 09:10:00;;;;;;;3.35;3.05;;;;;;;18.44;66.11;101064.03;6124420;23;20009;-45
2023/05/10 09:12:27;;;;;;;4.05;3.40;;;;;;;18.43;66.18;101067.72;6124049;23;20551;-50
2023/05/10 09:14:54;;;;;;;3.63;3.28;;;;;;;18.45;65.98;101067.56;6123933;23;20005;-45
2023/05/10 09:17:20;;;;;;;6.03;3.47;;;;;;;18.45;65.98;101075.66;6124439;23;20090;-47
2023/05/10 09:19:45;;;;;;;3.90;2.95;;;;;;;18.45;65.67;101072.97;6123951;23;20353;-50
2023/05/10 09:22:10;;;;;;;4.20;3.35;;;;;;;18.44;65.80;101079.34;6123937;23;20010;-47
2023/05/10 09:24:42;;;;;;;3.25;2.95;;;;;;;18.44;65.91;101079.34;6123597;23;20588;-46
2023/05/10 09:27:07;;;;;;;3.25;2.95;;;;;;;18.44;66.13;101080.19;6123748;23;20010;-48
2023/05/10 09:29:40;;;;;;;3.28;2.85;;;;;;;18.44;66.12;101082.06;6124499;23;20020;-47
2023/05/10 09:32:05;;;;;;;4.20;3.30;;;;;;;18.44;65.93;101082.91;6123754;23;20085;-48
2023/05/10 09:34:34;;;;;;;5.50;3.13;;;;;;;18.45;65.91;101076.53;6124375;23;20033;-48
2023/05/10 09:37:02;;;;;;;5.10;3.13;;;;;;;18.45;65.97;101081.03;6124126;23;20033;-48
2023/05/10 09:39:32;;;;;;;4.15;2.90;;;;;;;18.45;65.71;101089.13;6123684;23;20018;-48
2023/05/10 09:42:05;;;;;;;4.53;3.20;;;;;;;18.44;65.82;101079.34;6123798;23;20017;-50
2023/05/10 09:44:34;;;;;;;5.72;3.00;;;;;;;18.45;65.99;101087.31;6124054;23;20016;-50
2023/05/10 09:47:01;;;;;;;3.42;3.13;;;;;;;18.44;65.87;101085.59;6124382;23;19998;-49
2023/05/10 09:49:27;;;;;;;3.05;2.75;;;;;;;18.45;65.98;101090.00;6123950;23;20009;-47
2023/05/10 09:52:06;;;;;;;3.63;2.88;;;;;;;18.47;65.88;101089.88;6123719;23;20041;-47
2023/05/10 09:54:32;;;;;;;3.45;2.70;;;;;;;18.45;66.04;101091.81;6098194;23;20005;-51
2023/05/10 09:56:57;;;;;;;2.90;2.45;;;;;;;18.44;65.79;101093.69;6123510;23;20453;-46
2023/05/10 09:59:26;;;;;;;3.97;3.17;;;;;;;18.44;65.97;101090.16;6123555;23;20010;-50
2023/05/10 10:01:52;;;;;;;3.35;2.75;;;;;;;18.44;65.71;101092.84;6123775;23;20410;-49
2023/05/10 10:04:20;;;;;;;3.85;3.10;;;;;;;18.45;65.98;101099.91;6123638;23;20036;-48
2023/05/10 10:06:45;;;;;;;3.60;2.72;;;;;;;18.45;65.77;101091.81;6123655;23;20009;-48
2023/05/10 10:09:11;;;;;;;3.25;2.60;;;;;;;18.45;65.79;101086.44;6123806;23;20009;-50
2023/05/10 10:11:38;;;;;;;3.50;2.72;;;;;;;18.46;65.88;101088.16;6123624;23;20200;-51
2023/05/10 10:14:04;;;;;;;3.58;2.70;;;;;;;18.46;65.78;101094.38;6124188;23;20036;-48
2023/05/10 10:16:31;;;;;;;3.13;2.70;;;;;;;18.45;66.03;101098.09;6123408;23;20061;-48
2023/05/10 10:18:56;;;;;;;3.70;2.80;;;;;;;18.46;65.59;101094.38;6123791;23;20073;-48
2023/05/10 10:21:22;;;;;;;3.88;2.58;;;;;;;18.47;65.50;101096.09;6123535;23;20394;-48
2023/05/10 10:23:48;;;;;;;3.28;2.75;;;;;;;18.47;65.96;101095.25;6123456;23;20010;-49
2023/05/10 10:26:15;;;;;;;4.32;2.33;;;;;;;18.47;65.96;101089.88;6123516;23;20002;-47
2023/05/10 10:28:44;;;;;;;3.55;2.80;;;;;;;18.47;65.81;101097.97;6123807;23;20010;-49
2023/05/10 10:31:20;;;;;;;2.90;2.60;;;;;;;18.48;65.81;101097.78;6123096;23;20016;-48
2023/05/10 10:34:00;;;;;;;3.10;2.80;;;;;;;18.49;66.04;101104.06;6123553;23;20517;-47
2023/05/10 10:36:29;;;;;;;2.92;2.28;;;;;;;18.49;65.74;101101.34;6124380;23;20006;-49
2023/05/10 10:38:59;;;;;;;2.58;2.25;;;;;;;18.49;65.77;101101.34;6125421;23;20084;-48
2023/05/10 10:41:35;;;;;;;2.60;2.40;;;;;;;18.49;65.88;101098.66;6125301;23;20002;-47
2023/05/10 10:44:25;;;;;;;2.55;2.35;;;;;;;18.50;65.83;101092.25;6125353;23;20080;-47
2023/05/10 10:47:11;;;;;;;2.28;2.10;;;;;;;18.49;65.77;101096.81;6124936;23;20009;-47
2023/05/10 10:49:39;;;;;;;2.70;2.10;;;;;;;18.48;65.82;101097.78;6099741;23;20428;-46
2023/05/10 10:52:26;;;;;;;4.15;2.40;;;;;;;18.48;65.68;101102.34;6126122;23;20041;-48
2023/05/10 10:55:09;;;;;;;2.58;2.33;;;;;;;18.49;65.96;101101.34;6099129;23;20034;-49
2023/05/10 10:57:40;;;;;;;4.78;2.50;;;;;;;18.48;65.88;101103.19;6125566;23;20365;-49
2023/05/10 11:00:30;;;;;;;4.32;2.80;;;;;;;18.51;65.84;101099.38;6125903;23;20475;-51
2023/05/10 11:02:58;;;;;;;2.47;2.28;;;;;;;18.50;65.75;101101.19;6125604;23;20357;-47
2023/05/10 11:05:23;;;;;;;2.83;2.20;;;;;;;18.49;65.68;101099.50;6126150;23;20068;-48
2023/05/10 11:07:56;;;;;;;3.38;2.60;;;;;;;18.49;65.69;101098.66;6099796;23;20089;-48
2023/05/10 11:10:23;;;;;;;2.30;2.10;;;;;;;18.49;65.62;101104.06;6126021;23;20333;-48
2023/05/10 11:13:08;;;;;;;2.03;1.80;;;;;;;18.52;65.91;101101.06;6125375;23;20006;-46
2023/05/10 11:15:39;;;;;;;2.92;2.42;;;;;;;18.51;65.91;101102.06;6125221;23;20029;-46
2023/05/10 11:18:22;;;;;;;2.17;1.98;;;;;;;18.52;65.69;101103.75;6125412;23;20002;-48
2023/05/10 11:21:10;;;;;;;2.72;2.13;;;;;;;18.49;65.77;101107.59;6124990;23;20444;-46
2023/05/10 11:23:44;;;;;;;2.30;2.10;;;;;;;18.50;65.67;101108.44;6125838;23;20417;-47
2023/05/10 11:26:11;;;;;;;2.85;2.30;;;;;;;18.49;65.62;101109.44;6125242;23;20006;-48
2023/05/10 11:28:49;;;;;;;2.63;2.42;;;;;;;18.50;65.97;101111.13;6125436;23;20010;-46